createdAt,value
2022-12-11T00:04:26.676Z,101745.13
2022-12-11T00:09:28.516Z,101740.34
2022-12-11T00:14:30.171Z,101741.38
2022-12-11T00:19:31.793Z,101736.09
2022-12-11T00:24:33.656Z,101720.41
2022-12-11T00:29:35.366Z,101718.88
2022-12-11T00:34:37.105Z,101720.19
2022-12-11T00:39:42.657Z,101730.75
2022-12-11T00:44:44.563Z,101728.97
2022-12-11T00:49:49.801Z,101734.59
2022-12-11T00:54:51.846Z,101729.75
2022-12-11T00:59:53.472Z,101726.13
2022-12-11T01:04:55.207Z,101720.94
2022-12-11T01:10:16.762Z,101714.09
2022-12-11T01:15:19.896Z,101716.13
2022-12-11T01:20:22.537Z,101723.13
2022-12-11T01:25:24.258Z,101719.97
2022-12-11T01:30:26.724Z,101725.38
2022-12-11T01:35:29.194Z,101717.91
2022-12-11T01:40:30.830Z,101718.47
2022-12-11T01:45:47.715Z,101702.41
2022-12-11T01:50:53.402Z,101708.88
2022-12-11T01:55:57.266Z,101709.41
2022-12-11T02:01:00.211Z,101707.91
2022-12-11T02:06:02.473Z,101694.34
2022-12-11T02:11:13.085Z,101687.13
2022-12-11T02:16:43.295Z,101688.69
2022-12-11T02:21:50.623Z,101695.75
2022-12-11T02:27:26.170Z,101689.44
2022-12-11T02:32:36.785Z,101694.47
2022-12-11T02:37:41.285Z,101690.72
2022-12-11T02:42:47.614Z,101692.00
2022-12-11T02:47:50.539Z,101686.94
2022-12-11T02:52:55.859Z,101689.69
2022-12-11T02:58:08.297Z,101674.53
2022-12-11T03:03:09.994Z,101675.06
2022-12-11T03:08:12.252Z,101674.19
2022-12-11T03:13:19.040Z,101670.28
2022-12-11T03:18:36.425Z,101671.13
2022-12-11T03:24:08.754Z,101671.78
2022-12-11T03:29:22.959Z,101671.38
2022-12-11T03:34:32.719Z,101674.19
2022-12-11T03:39:40.942Z,101679.63
2022-12-11T03:44:47.864Z,101681.13
2022-12-11T03:49:52.534Z,101685.44
2022-12-11T03:54:57.758Z,101673.66
2022-12-11T03:59:59.605Z,101670.28
2022-12-11T04:05:01.661Z,101664.19
2022-12-11T04:10:04.768Z,101667.97
2022-12-11T04:15:06.567Z,101662.44
2022-12-11T04:20:27.421Z,101656.25
2022-12-11T04:25:29.112Z,101650.56
2022-12-11T04:30:34.162Z,101644.47
2022-12-11T04:35:36.416Z,101641.47
2022-12-11T04:40:38.056Z,101642.84
2022-12-11T04:45:39.655Z,101654.63
2022-12-11T04:50:41.177Z,101654.34
2022-12-11T04:55:42.783Z,101650.19
2022-12-11T05:00:44.441Z,101642.72
2022-12-11T05:05:51.198Z,101646.50
2022-12-11T05:11:00.513Z,101644.50
2022-12-11T05:16:05.188Z,101644.75
2022-12-11T05:21:09.418Z,101645.75
2022-12-11T05:26:17.221Z,101645.13
2022-12-11T05:31:21.618Z,101653.00
2022-12-11T05:36:24.678Z,101655.63
2022-12-11T05:41:29.673Z,101653.63
2022-12-11T05:46:31.449Z,101648.94
2022-12-11T05:51:38.998Z,101654.53
2022-12-11T05:56:40.561Z,101640.09
2022-12-11T06:01:43.432Z,101649.69
2022-12-11T06:06:48.111Z,101646.19
2022-12-11T06:11:49.696Z,101646.28
2022-12-11T06:16:51.475Z,101649.34
2022-12-11T06:21:52.987Z,101644.78
2022-12-11T06:26:54.514Z,101639.72
2022-12-11T06:31:56.080Z,101646.16
2022-12-11T06:36:57.636Z,101637.94
2022-12-11T06:41:59.291Z,101634.16
2022-12-11T06:47:01.081Z,101626.06
2022-12-11T06:52:02.662Z,101628.81
2022-12-11T06:57:04.191Z,101635.28
2022-12-11T07:02:05.919Z,101644.78
2022-12-11T07:07:08.490Z,101646.28
2022-12-11T07:12:10.109Z,101653.38
2022-12-11T07:17:11.684Z,101643.00
2022-12-11T07:22:13.355Z,101643.75
2022-12-11T07:27:15.241Z,101649.56
2022-12-11T07:32:17.065Z,101656.41
2022-12-11T07:37:18.699Z,101656.41
2022-12-11T07:42:20.537Z,101653.38
2022-12-11T07:47:22.097Z,101660.47
2022-12-11T07:52:23.703Z,101660.47
2022-12-11T07:57:25.217Z,101657.03
2022-12-11T08:02:27.822Z,101661.97
2022-12-11T08:07:35.424Z,101664.28
2022-12-11T08:12:37.231Z,101659.72
2022-12-11T08:17:40.297Z,101665.66
2022-12-11T08:22:41.974Z,101659.47
2022-12-11T08:27:44.645Z,101664.91
2022-12-11T08:32:46.280Z,101665.03
2022-12-11T08:37:47.967Z,101669.09
2022-12-11T08:42:50.029Z,101667.31
2022-12-11T08:47:51.828Z,101661.50
2022-12-11T08:52:54.405Z,101663.25
2022-12-11T08:57:55.946Z,101649.09
2022-12-11T09:02:57.569Z,101655.41
2022-12-11T09:07:59.378Z,101652.13
2022-12-11T09:13:01.010Z,101645.03
2022-12-11T09:18:02.581Z,101634.66
2022-12-11T09:23:04.410Z,101634.53
2022-12-11T09:28:06.005Z,101630.59
2022-12-11T09:33:08.650Z,101637.69
2022-12-11T09:38:13.313Z,101627.81
2022-12-11T09:43:37.489Z,101629.84
2022-12-11T09:48:43.563Z,101626.66
2022-12-11T09:53:45.484Z,101618.19
2022-12-11T09:59:19.284Z,101612.38
2022-12-11T10:05:04.790Z,101610.34
2022-12-11T10:10:16.798Z,101599.72
2022-12-11T10:15:37.106Z,101601.50
2022-12-11T10:20:40.409Z,101602.00
2022-12-11T10:25:49.069Z,101599.25
2022-12-11T10:30:56.695Z,101589.72
2022-12-11T10:35:58.841Z,101586.81
2022-12-11T10:41:36.913Z,101575.44
2022-12-11T10:46:38.851Z,101557.47
2022-12-11T10:51:40.530Z,101535.97
2022-12-11T10:56:47.075Z,101516.00
2022-12-11T11:01:49.070Z,101505.72
2022-12-11T11:07:02.322Z,101483.72
2022-12-11T11:12:07.840Z,101473.84
2022-12-11T11:17:15.736Z,101469.91
2022-12-11T11:22:19.491Z,101458.38
2022-12-11T11:27:29.776Z,101443.31
2022-12-11T11:32:36.621Z,101425.88
2022-12-11T11:37:40.853Z,101416.50
2022-12-11T11:42:49.755Z,101407.25
2022-12-11T11:48:03.079Z,101395.59
2022-12-11T11:53:14.726Z,101383.38
2022-12-11T11:58:23.016Z,101385.94
2022-12-11T12:03:25.735Z,101378.25
2022-12-11T12:08:35.964Z,101373.19
2022-12-11T12:13:58.049Z,101367.88
2022-12-11T12:19:03.867Z,101361.75
2022-12-11T12:24:14.520Z,101354.19
2022-12-11T12:29:54.879Z,101344.06
2022-12-11T12:35:23.260Z,101336.41
2022-12-11T12:40:39.838Z,101336.41
2022-12-11T12:46:21.008Z,101326.31
2022-12-11T12:51:23.816Z,101320.72
2022-12-11T12:56:27.311Z,101305.78
2022-12-11T13:01:31.719Z,101301.56
2022-12-11T13:06:35.925Z,101302.13
2022-12-11T13:11:37.602Z,101304.53
2022-12-11T13:16:42.241Z,101293.34
2022-12-11T13:22:18.181Z,101279.69
2022-12-11T13:27:25.990Z,101281.91
2022-12-11T13:32:31.037Z,101276.03
2022-12-11T13:37:41.553Z,101293.06
2022-12-11T13:42:51.058Z,101290.88
2022-12-11T13:47:52.780Z,101278.56
2022-12-11T13:52:55.886Z,101287.03
2022-12-11T13:58:01.448Z,101295.69
2022-12-11T14:03:07.603Z,101301.41
2022-12-11T14:08:10.478Z,101294.41
2022-12-11T14:13:26.068Z,101300.75
2022-12-11T14:18:31.702Z,101303.81
2022-12-11T14:23:35.226Z,101295.69
2022-12-11T14:28:38.890Z,101293.81
2022-12-11T14:33:53.959Z,101297.28
2022-12-11T14:39:19.227Z,101305.00
2022-12-11T14:44:24.534Z,101305.59
2022-12-11T14:49:50.322Z,101311.97
2022-12-11T14:55:16.769Z,101311.06
2022-12-11T15:00:32.176Z,101311.47
2022-12-11T15:05:40.593Z,101308.41
2022-12-11T15:11:00.836Z,101311.31
2022-12-11T15:16:07.741Z,101320.59
2022-12-11T15:21:12.207Z,101323.34
2022-12-11T15:26:13.985Z,101316.53
2022-12-11T15:31:28.953Z,101320.63
2022-12-11T15:36:30.472Z,101324.66
2022-12-11T15:41:34.722Z,101325.41
2022-12-11T15:46:37.530Z,101329.47
2022-12-11T15:51:42.796Z,101320.25
2022-12-11T15:56:45.137Z,101317.81
2022-12-11T16:01:46.723Z,101321.38
2022-12-11T16:06:48.309Z,101308.09
2022-12-11T16:11:50.066Z,101312.38
2022-12-11T16:16:51.624Z,101313.31
2022-12-11T16:21:53.256Z,101304.13
2022-12-11T16:26:54.827Z,101306.69
2022-12-11T16:31:56.367Z,101302.13
2022-12-11T16:36:58.697Z,101305.41
2022-12-11T16:42:00.439Z,101301.34
2022-12-11T16:47:02.013Z,101297.19
2022-12-11T16:52:06.512Z,101300.28
2022-12-11T16:57:08.120Z,101306.66
2022-12-11T17:02:12.913Z,101312.44
2022-12-11T17:07:15.801Z,101312.00
2022-12-11T17:12:17.614Z,101310.19
2022-12-11T17:17:19.216Z,101317.78
2022-12-11T17:22:20.789Z,101326.72
2022-12-11T17:27:22.992Z,101328.41
2022-12-11T17:32:27.402Z,101325.13
2022-12-11T17:37:29.163Z,101317.78
2022-12-11T17:42:31.027Z,101325.13
2022-12-11T17:47:32.785Z,101321.13
2022-12-11T17:52:37.343Z,101318.84
2022-12-11T17:57:41.250Z,101315.19
2022-12-11T18:02:43.348Z,101312.75
2022-12-11T18:07:45.068Z,101319.34
2022-12-11T18:12:46.906Z,101310.94
2022-12-11T18:17:48.544Z,101315.41
2022-12-11T18:22:51.153Z,101323.34
2022-12-11T18:27:55.084Z,101314.53
2022-12-11T18:32:56.643Z,101320.06
2022-12-11T18:37:58.193Z,101310.19
2022-12-11T18:42:59.795Z,101308.88
2022-12-11T18:48:01.328Z,101309.66
2022-12-11T18:53:03.970Z,101317.34
2022-12-11T18:58:05.819Z,101318.09
2022-12-11T19:03:08.147Z,101319.13
2022-12-11T19:08:12.507Z,101314.72
2022-12-11T19:13:14.782Z,101313.81
2022-12-11T19:18:16.337Z,101315.59
2022-12-11T19:23:18.178Z,101320.63
2022-12-11T19:28:20.000Z,101330.75
2022-12-11T19:33:22.062Z,101323.13
2022-12-11T19:38:23.997Z,101327.94
2022-12-11T19:43:25.556Z,101338.81
2022-12-11T19:48:27.637Z,101339.00
2022-12-11T19:53:30.127Z,101349.00
2022-12-11T19:58:32.365Z,101347.47
2022-12-11T20:03:34.695Z,101340.00
2022-12-11T20:08:44.471Z,101347.72
2022-12-11T20:13:48.417Z,101346.69
2022-12-11T20:18:50.384Z,101340.50
2022-12-11T20:30:51.875Z,101341.13
2022-12-11T20:35:53.489Z,101339.84
2022-12-11T20:40:55.144Z,101339.38
2022-12-11T20:45:56.765Z,101331.00
2022-12-11T20:51:02.472Z,101329.59
2022-12-11T20:56:17.513Z,101322.88
2022-12-11T21:01:22.733Z,101328.78
2022-12-11T21:06:33.738Z,101335.81
2022-12-11T21:11:35.717Z,101334.44
2022-12-11T21:16:37.943Z,101340.41
2022-12-11T21:21:39.960Z,101333.81
2022-12-11T21:26:41.615Z,101335.75
2022-12-11T21:31:43.656Z,101337.50
2022-12-11T21:36:46.909Z,101336.34
2022-12-11T21:41:48.559Z,101330.75
2022-12-11T21:46:50.191Z,101323.41
2022-12-11T21:51:52.143Z,101328.69
2022-12-11T21:56:54.610Z,101330.28
2022-12-11T22:01:56.437Z,101334.94
2022-12-11T22:06:58.018Z,101334.44
2022-12-11T22:11:59.637Z,101345.94
2022-12-11T22:17:01.345Z,101349.13
2022-12-11T22:22:02.976Z,101356.78
2022-12-11T22:27:04.574Z,101359.34
2022-12-11T22:32:06.278Z,101364.13
2022-12-11T22:37:07.909Z,101370.38
2022-12-11T22:42:09.528Z,101360.28
2022-12-11T22:47:11.415Z,101364.75
2022-12-11T22:52:12.966Z,101360.81
2022-12-11T22:57:14.516Z,101361.69
2022-12-11T23:02:16.434Z,101372.53
2022-12-11T23:07:18.013Z,101364.41
2022-12-11T23:12:19.731Z,101371.00
2022-12-11T23:17:21.615Z,101371.34
2022-12-11T23:22:23.309Z,101370.03
2022-12-11T23:27:24.900Z,101373.09
2022-12-11T23:32:26.470Z,101374.59
2022-12-11T23:37:28.029Z,101376.13
2022-12-11T23:42:29.548Z,101377.91
2022-12-11T23:47:31.525Z,101378.63
2022-12-11T23:52:35.891Z,101374.16
2022-12-11T23:57:38.514Z,101377.50
